Time;durP1;ratioP1;P1;durP2;ratioP2;P2;SDS_P1;SDS_P2;PMS_P1;PMS_P2;Temp;Humidity;BMP_temperature;BMP_pressure;BME280_temperature;BME280_humidity;BME280_pressure;Samples;Min_cycle;Max_cycle;Signal;HPM_P1;HPM_P2
2022/04/04 00:01:41;;;;;;;8.07;7.38;;;;;;;4.75;47.43;100501.34;10246120;28;20252;-64
2022/04/04 00:06:43;;;;;;;9.18;8.27;;;;;;;4.91;47.74;100543.59;10252074;28;20066;-64
2022/04/04 00:11:44;;;;;;;9.10;8.20;;;;;;;4.44;48.20;100523.16;10237698;28;20158;-64
2022/04/04 00:16:46;;;;;;;8.80;8.07;;;;;;;4.46;48.28;100530.97;10238187;28;20051;-64
2022/04/04 00:21:47;;;;;;;9.73;8.77;;;;;;;4.35;48.53;100536.78;10238929;28;20059;-64
2022/04/04 00:26:49;;;;;;;9.40;8.65;;;;;;;4.11;48.65;100521.28;10248551;28;20059;-64
2022/04/04 00:31:51;;;;;;;9.45;8.65;;;;;;;3.94;48.97;100526.53;10235508;28;20421;-64
2022/04/04 00:36:52;;;;;;;9.35;8.48;;;;;;;3.93;49.19;100527.44;10235673;28;20063;-65
2022/04/04 00:41:54;;;;;;;10.20;9.30;;;;;;;3.85;50.08;100531.28;10235663;28;20047;-63
2022/04/04 00:46:56;;;;;;;9.68;8.90;;;;;;;3.72;49.91;100517.00;10235180;28;20061;-63
2022/04/04 00:51:57;;;;;;;10.13;9.20;;;;;;;3.74;50.30;100528.34;10235283;28;20057;-63
2022/04/04 00:57:02;;;;;;;10.07;9.27;;;;;;;3.72;50.14;100525.78;10238417;28;20127;-63
2022/04/04 01:02:04;;;;;;;10.45;9.45;;;;;;;3.60;50.37;100500.00;10235365;28;20193;-64
2022/04/04 01:07:06;;;;;;;10.50;9.50;;;;;;;3.67;50.39;100503.22;10233461;28;20066;-64
2022/04/04 01:12:09;;;;;;;9.40;8.57;;;;;;;3.59;49.91;100495.69;10237151;28;20057;-67
2022/04/04 01:17:11;;;;;;;8.60;7.90;;;;;;;3.51;50.55;100493.44;10234480;28;20060;-64
2022/04/04 01:22:14;;;;;;;8.85;7.95;;;;;;;3.44;49.74;100484.13;10231549;28;20515;-64
2022/04/04 01:27:16;;;;;;;9.73;8.82;;;;;;;3.25;50.62;100484.09;10235539;28;20051;-64
2022/04/04 01:32:17;;;;;;;8.32;7.63;;;;;;;3.06;50.49;100457.78;10230974;28;20067;-64
2022/04/04 01:37:18;;;;;;;9.35;8.55;;;;;;;2.98;51.13;100473.09;10238807;28;20055;-64
2022/04/04 01:42:20;;;;;;;9.60;8.73;;;;;;;2.86;51.18;100439.47;10235453;28;20046;-63
2022/04/04 01:47:21;;;;;;;9.75;8.85;;;;;;;3.00;52.34;100479.13;10231432;28;20097;-64
2022/04/04 01:52:22;;;;;;;10.15;9.25;;;;;;;3.18;51.65;100475.66;10236086;28;20043;-63
2022/04/04 01:57:24;;;;;;;8.85;8.05;;;;;;;3.05;51.80;100456.09;10232540;28;20066;-63
2022/04/04 02:02:25;;;;;;;10.38;9.35;;;;;;;3.06;51.60;100462.22;10236674;28;20054;-63
2022/04/04 02:07:27;;;;;;;10.13;9.13;;;;;;;3.08;51.68;100470.88;10239298;28;20047;-63
2022/04/04 02:12:30;;;;;;;9.90;8.88;;;;;;;2.91;52.22;100464.63;10262068;28;20043;-63
2022/04/04 02:17:31;;;;;;;9.95;8.93;;;;;;;2.86;52.41;100473.63;10267137;28;20061;-65
2022/04/04 02:22:33;;;;;;;10.15;9.15;;;;;;;2.71;53.24;100465.50;10254690;28;20143;-63
2022/04/04 02:27:34;;;;;;;10.68;9.68;;;;;;;2.60;54.04;100459.88;10244611;28;20058;-64
2022/04/04 02:32:36;;;;;;;10.50;9.50;;;;;;;2.27;55.01;100453.38;10236540;28;20070;-63
2022/04/04 02:37:38;;;;;;;10.60;9.60;;;;;;;2.38;55.42;100457.34;10235285;28;20137;-64
2022/04/04 02:42:39;;;;;;;9.93;9.02;;;;;;;2.25;55.56;100449.09;10230886;28;20055;-65
2022/04/04 02:47:42;;;;;;;11.00;10.00;;;;;;;2.19;55.67;100454.63;10231832;28;20050;-65
2022/04/04 02:52:44;;;;;;;10.70;9.70;;;;;;;2.28;56.14;100444.59;10233077;28;20498;-66
2022/04/04 02:57:45;;;;;;;11.23;10.10;;;;;;;2.24;56.25;100453.53;10232613;28;20061;-65
2022/04/04 03:02:47;;;;;;;12.40;11.18;;;;;;;2.01;57.28;100443.13;10232212;28;20057;-64
2022/04/04 03:07:50;;;;;;;11.63;10.57;;;;;;;2.02;56.96;100440.44;10235912;28;20126;-65
2022/04/04 03:12:51;;;;;;;10.68;9.60;;;;;;;1.83;57.74;100416.75;10232799;28;20527;-64
2022/04/04 03:17:55;;;;;;;12.30;10.63;;;;;;;1.92;57.85;100431.22;10238170;28;20051;-63
2022/04/04 03:22:57;;;;;;;11.98;10.20;;;;;;;2.15;57.19;100432.91;10241167;28;20046;-64
2022/04/04 03:27:58;;;;;;;10.85;9.82;;;;;;;2.21;57.20;100410.78;10238073;28;20051;-64
2022/04/04 03:33:00;;;;;;;11.23;10.02;;;;;;;2.39;56.94;100412.59;10237454;28;20055;-64
2022/04/04 03:38:03;;;;;;;10.52;9.57;;;;;;;2.43;56.68;100414.19;10238627;28;20153;-65
2022/04/04 03:43:04;;;;;;;11.20;10.13;;;;;;;2.25;57.33;100393.94;10240278;28;20061;-62
2022/04/04 03:48:06;;;;;;;11.50;10.40;;;;;;;2.34;56.67;100390.91;10238473;28;20047;-64
2022/04/04 03:53:08;;;;;;;12.05;10.77;;;;;;;2.24;57.17;100384.38;10236625;28;20058;-65
2022/04/04 03:58:10;;;;;;;12.25;10.98;;;;;;;2.15;57.86;100397.88;10238961;28;20062;-65
2022/04/04 04:03:11;;;;;;;11.50;10.43;;;;;;;1.98;57.85;100365.34;10234129;28;20050;-65
2022/04/04 04:08:13;;;;;;;13.73;12.38;;;;;;;2.13;57.41;100382.19;10239239;28;20138;-65
2022/04/04 04:13:14;;;;;;;12.27;11.07;;;;;;;2.19;57.48;100381.09;10239544;28;20039;-65
2022/04/04 04:18:15;;;;;;;11.52;10.38;;;;;;;2.16;57.02;100368.94;10239629;28;20055;-64
2022/04/04 04:23:18;;;;;;;12.38;11.10;;;;;;;2.37;56.96;100372.41;10236469;28;20065;-65
2022/04/04 04:28:20;;;;;;;12.70;11.50;;;;;;;2.41;57.00;100355.56;10234459;28;20047;-64
2022/04/04 04:33:22;;;;;;;12.43;10.93;;;;;;;2.42;56.89;100357.28;10235661;28;20237;-67
2022/04/04 04:38:24;;;;;;;12.70;11.45;;;;;;;2.42;56.60;100349.41;10246120;28;20050;-67
2022/04/04 04:43:26;;;;;;;12.32;11.23;;;;;;;2.68;56.09;100354.41;10234097;28;20110;-63
2022/04/04 04:48:27;;;;;;;12.85;11.65;;;;;;;2.36;57.06;100352.31;10225839;28;20059;-64
2022/04/04 04:53:29;;;;;;;12.68;11.40;;;;;;;2.17;57.58;100346.16;10237516;28;20039;-63
2022/04/04 04:58:30;;;;;;;11.77;10.73;;;;;;;2.15;57.68;100342.75;10217173;28;20062;-65
2022/04/04 05:03:32;;;;;;;13.77;11.40;;;;;;;1.97;58.17;100326.88;10219048;28;20422;-65
2022/04/04 05:08:33;;;;;;;11.70;10.65;;;;;;;1.97;58.23;100311.13;10218768;28;20572;-63
2022/04/04 05:13:34;;;;;;;12.95;11.57;;;;;;;1.94;58.84;100321.78;10217634;28;20048;-61
2022/04/04 05:18:37;;;;;;;12.38;11.18;;;;;;;1.81;59.25;100320.59;10213469;28;20055;-62
2022/04/04 05:23:39;;;;;;;12.15;10.95;;;;;;;1.89;59.30;100326.34;10211712;28;20510;-62
2022/04/04 05:28:43;;;;;;;12.57;11.27;;;;;;;1.86;59.66;100326.50;10211228;28;20065;-61
2022/04/04 05:33:45;;;;;;;12.25;10.88;;;;;;;1.92;59.30;100336.72;10213718;28;20050;-61
2022/04/04 05:38:52;;;;;;;12.73;11.50;;;;;;;1.66;60.57;100315.06;10212882;28;20108;-62
2022/04/04 05:43:54;;;;;;;12.85;11.25;;;;;;;1.84;59.59;100330.97;10214776;28;20629;-62
2022/04/04 05:48:55;;;;;;;12.15;11.02;;;;;;;1.67;59.93;100301.03;10211767;28;20055;-61
2022/04/04 05:53:56;;;;;;;12.05;10.93;;;;;;;1.89;59.54;100313.22;10213141;28;20142;-61
2022/04/04 05:58:58;;;;;;;10.60;9.50;;;;;;;2.21;59.59;100321.47;10211460;28;20039;-63
2022/04/04 06:03:59;;;;;;;12.40;10.32;;;;;;;2.62;57.62;100326.63;10215237;28;20386;-61
2022/04/04 06:09:01;;;;;;;10.93;9.82;;;;;;;2.55;57.47;100319.94;10208990;28;20058;-59
2022/04/04 06:14:03;;;;;;;12.65;10.40;;;;;;;2.45;57.51;100324.78;10209634;28;20129;-59
2022/04/04 06:19:04;;;;;;;11.52;10.43;;;;;;;2.34;58.00;100312.09;10209526;28;20198;-62
2022/04/04 06:24:06;;;;;;;12.38;10.88;;;;;;;2.28;58.24;100315.88;10206843;28;20141;-60
2022/04/04 06:29:10;;;;;;;11.20;10.10;;;;;;;2.25;58.12;100296.75;10211607;28;20182;-59
2022/04/04 06:34:12;;;;;;;10.97;9.67;;;;;;;2.44;57.31;100308.13;10210460;28;20594;-62
2022/04/04 06:39:14;;;;;;;12.05;10.57;;;;;;;2.44;57.08;100315.19;10210132;28;20109;-62
2022/04/04 06:44:16;;;;;;;11.40;10.27;;;;;;;2.28;57.78;100291.38;10215440;28;20158;-61
2022/04/04 06:49:23;;;;;;;11.05;9.75;;;;;;;2.73;56.80;100295.44;10214816;28;20894;-61
2022/04/04 06:54:27;;;;;;;12.70;10.80;;;;;;;2.91;56.40;100298.09;10215871;28;20607;-61
2022/04/04 06:59:30;;;;;;;10.73;9.63;;;;;;;2.98;55.81;100292.47;10215594;28;20055;-62
2022/04/04 07:04:31;;;;;;;10.52;9.50;;;;;;;3.18;55.19;100283.63;10212538;28;20399;-61
2022/04/04 07:09:34;;;;;;;11.20;9.95;;;;;;;3.35;54.59;100272.25;10215573;28;20413;-63
2022/04/04 07:14:36;;;;;;;11.82;10.57;;;;;;;3.63;53.92;100280.53;10213426;28;20046;-62
2022/04/04 07:19:37;;;;;;;11.85;10.63;;;;;;;3.67;53.48;100269.75;10214583;28;20047;-61
2022/04/04 07:24:39;;;;;;;10.10;9.10;;;;;;;3.95;52.49;100262.19;10213030;28;20269;-62
2022/04/04 07:29:41;;;;;;;10.82;9.00;;;;;;;4.00;51.79;100245.22;10210085;28;20051;-62
2022/04/04 07:34:43;;;;;;;11.20;10.07;;;;;;;3.92;51.89;100249.19;10212500;28;20059;-63
2022/04/04 07:39:44;;;;;;;10.82;9.73;;;;;;;4.03;51.42;100228.41;10207561;28;21302;-63
2022/04/04 07:44:45;;;;;;;11.50;10.35;;;;;;;4.29;50.93;100223.50;10211534;28;20051;-65
2022/04/04 07:49:47;;;;;;;11.40;10.23;;;;;;;4.64;49.35;100231.22;10216044;28;20086;-63
2022/04/04 07:54:48;;;;;;;10.43;9.48;;;;;;;4.78;48.12;100226.03;10206570;28;20053;-63
2022/04/04 07:59:51;;;;;;;11.63;10.10;;;;;;;4.46;49.03;100204.97;10208292;28;20051;-62
2022/04/04 08:04:52;;;;;;;11.05;9.95;;;;;;;4.48;49.27;100218.91;10215040;28;20673;-62
2022/04/04 08:09:54;;;;;;;11.25;10.07;;;;;;;4.70;48.62;100202.75;10220628;28;20055;-62
2022/04/04 08:14:56;;;;;;;12.35;10.70;;;;;;;4.81;47.91;100173.13;10218547;28;20134;-62
2022/04/04 08:19:57;;;;;;;12.10;9.43;;;;;;;5.21;48.41;100177.84;10219046;28;20055;-62
2022/04/04 08:24:59;;;;;;;9.18;8.23;;;;;;;5.48;46.59;100189.41;10216740;28;20054;-62
2022/04/04 08:30:00;;;;;;;9.93;8.82;;;;;;;5.38;46.80;100176.84;10212674;28;20078;-61
2022/04/04 08:35:04;;;;;;;10.45;9.45;;;;;;;5.38;46.23;100132.81;10217931;28;20058;-62
2022/04/04 08:40:07;;;;;;;9.40;8.50;;;;;;;5.85;46.38;100165.16;10214238;28;20054;-62
2022/04/04 08:45:09;;;;;;;9.73;8.82;;;;;;;6.41;45.38;100156.41;10217114;28;20129;-62
2022/04/04 08:50:11;;;;;;;9.73;8.73;;;;;;;6.67;45.02;100147.63;10217585;28;20150;-62
2022/04/04 08:55:15;;;;;;;8.98;8.07;;;;;;;6.70;45.11;100152.72;10213681;28;20906;-62
2022/04/04 09:00:16;;;;;;;11.77;8.35;;;;;;;6.93;43.80;100129.16;10221320;28;20055;-60
2022/04/04 09:05:18;;;;;;;8.73;7.90;;;;;;;7.41;43.49;100121.47;10207795;28;20195;-61
2022/04/04 09:10:19;;;;;;;11.55;9.15;;;;;;;7.35;42.60;100106.00;10215428;28;20058;-61
2022/04/04 09:15:21;;;;;;;8.90;8.07;;;;;;;7.73;42.67;100091.00;10215329;28;20451;-61
2022/04/04 09:20:22;;;;;;;9.98;8.20;;;;;;;7.93;41.57;100084.31;10212928;28;20051;-61
2022/04/04 09:25:31;;;;;;;9.73;8.82;;;;;;;8.17;41.56;100075.50;10214861;28;20051;-61
2022/04/04 09:30:32;;;;;;;9.93;8.75;;;;;;;8.48;40.80;100053.75;10215848;28;20057;-61
2022/04/04 09:35:44;;;;;;;9.18;8.35;;;;;;;9.21;39.63;100045.59;10216246;28;20062;-61
2022/04/04 09:40:46;;;;;;;7.15;6.40;;;;;;;9.28;37.37;100027.38;10218641;28;20047;-62
2022/04/04 09:45:47;;;;;;;6.93;6.28;;;;;;;9.37;35.59;100026.63;10217069;28;20057;-61
2022/04/04 09:50:50;;;;;;;6.57;5.93;;;;;;;9.83;33.86;100014.97;10213604;28;20184;-62
2022/04/04 09:55:57;;;;;;;6.80;6.20;;;;;;;10.27;34.14;99999.84;10212827;28;20055;-61
2022/04/04 10:01:00;;;;;;;6.10;5.50;;;;;;;11.29;32.76;99977.88;10216595;28;20082;-62
2022/04/04 10:06:05;;;;;;;6.63;6.03;;;;;;;11.89;30.68;99957.50;10212645;28;20717;-63
2022/04/04 10:11:10;;;;;;;6.15;5.55;;;;;;;11.74;30.26;99954.41;10215246;28;20082;-62
2022/04/04 10:16:12;;;;;;;;;;;;;;;11.98;29.62;99951.38;10215753;28;20059;-63
2022/04/04 10:21:13;;;;;;;5.88;5.47;;;;;;;11.28;30.08;99925.56;10218034;28;19926;-62
2022/04/04 10:26:15;;;;;;;5.75;5.20;;;;;;;11.48;30.15;99938.94;10212669;28;20225;-62
2022/04/04 10:31:19;;;;;;;5.45;4.88;;;;;;;11.44;31.39;99890.41;10210935;28;20047;-61
2022/04/04 10:36:22;;;;;;;7.60;5.35;;;;;;;12.54;29.23;99905.25;10222904;28;20063;-61
2022/04/04 10:41:30;;;;;;;5.68;5.28;;;;;;;12.31;28.55;99890.53;10213443;28;20053;-61
2022/04/04 10:46:33;;;;;;;5.15;4.65;;;;;;;12.23;29.54;99869.09;10215813;28;20145;-60
2022/04/04 10:51:36;;;;;;;5.35;4.85;;;;;;;11.58;30.08;99856.34;10214955;28;20552;-61
2022/04/04 10:56:40;;;;;;;6.63;4.77;;;;;;;11.81;29.56;99862.22;10215178;28;20055;-62
2022/04/04 11:01:45;;;;;;;5.45;4.93;;;;;;;11.23;29.91;99847.88;10230020;28;20081;-61
2022/04/04 11:12:14;;;;;;;5.63;4.72;;;;;;;12.11;28.21;99831.88;10214204;28;20046;-62
2022/04/04 11:17:23;;;;;;;5.35;4.60;;;;;;;11.34;28.89;99803.44;10215443;28;20051;-61
2022/04/04 11:22:26;;;;;;;4.85;4.55;;;;;;;11.59;28.88;99808.22;10216356;28;20081;-61
2022/04/04 11:27:28;;;;;;;5.25;4.78;;;;;;;11.05;29.97;99788.25;10218153;28;20070;-61
2022/04/04 11:32:33;;;;;;;6.55;5.10;;;;;;;11.22;29.93;99778.75;10215739;28;20050;-63
2022/04/04 11:37:47;;;;;;;9.15;5.82;;;;;;;12.12;28.58;99782.88;10217890;28;20061;-61
2022/04/04 11:42:51;;;;;;;7.18;5.47;;;;;;;13.32;26.82;99754.38;10222201;28;20050;-61
2022/04/04 11:48:05;;;;;;;5.68;5.18;;;;;;;14.01;25.56;99776.00;10221512;28;20878;-64
2022/04/04 11:53:12;;;;;;;4.65;4.20;;;;;;;13.93;25.74;99712.56;10228706;28;20046;-63
2022/04/04 11:58:20;;;;;;;4.80;4.40;;;;;;;12.37;27.31;99722.69;10221695;28;20063;-62
2022/04/04 12:03:25;;;;;;;5.20;4.10;;;;;;;11.89;28.10;99729.03;10221804;28;20055;-62
2022/04/04 12:08:27;;;;;;;5.95;4.60;;;;;;;11.13;29.04;99727.97;10220747;28;20054;-61
2022/04/04 12:13:28;;;;;;;5.80;5.28;;;;;;;11.64;28.17;99701.97;10223843;28;20213;-62
2022/04/04 12:18:30;;;;;;;5.45;4.82;;;;;;;12.03;28.08;99698.38;10222044;28;20201;-62
2022/04/04 12:28:53;;;;;;;8.38;4.93;;;;;;;10.85;29.35;99688.88;10221488;28;20061;-63
2022/04/04 12:34:09;;;;;;;6.32;5.10;;;;;;;10.58;30.07;99669.94;10224476;28;20045;-61
2022/04/04 12:39:16;;;;;;;10.57;5.35;;;;;;;10.35;30.64;99668.47;10222340;28;20242;-61
2022/04/04 12:44:28;;;;;;;3.83;3.53;;;;;;;10.65;30.21;99664.06;10219388;28;20060;-61
2022/04/04 12:49:30;;;;;;;4.82;4.43;;;;;;;10.72;28.91;99675.81;10219385;28;20410;-61
2022/04/04 12:54:54;;;;;;;9.40;4.40;;;;;;;10.33;29.66;99650.00;10223480;28;20534;-61
2022/04/04 12:59:57;;;;;;;4.30;3.97;;;;;;;10.20;29.61;99658.19;10215904;28;20069;-61
2022/04/04 13:05:15;;;;;;;5.80;4.50;;;;;;;10.24;29.76;99653.44;10223060;28;20052;-61
2022/04/04 13:10:17;;;;;;;4.80;4.30;;;;;;;10.54;29.80;99636.59;10217992;28;20050;-63
2022/04/04 13:15:40;;;;;;;5.22;3.50;;;;;;;10.88;29.43;99640.66;10223961;28;20694;-61
2022/04/04 13:20:42;;;;;;;4.38;3.88;;;;;;;10.51;29.39;99636.88;10219333;28;20055;-62
2022/04/04 13:25:45;;;;;;;4.28;3.88;;;;;;;10.15;31.17;99641.81;10219073;28;20047;-62
2022/04/04 13:30:47;;;;;;;4.00;3.70;;;;;;;9.70;31.62;99607.66;10218315;28;20234;-65
2022/04/04 13:35:52;;;;;;;4.88;3.75;;;;;;;9.99;31.26;99607.75;10225263;28;20084;-62
2022/04/04 13:40:54;;;;;;;4.70;3.95;;;;;;;10.00;31.30;99612.09;10220392;28;20674;-62
2022/04/04 13:45:55;;;;;;;8.48;4.32;;;;;;;9.96;32.25;99607.19;10222040;28;20586;-61
2022/04/04 13:50:57;;;;;;;5.15;4.45;;;;;;;9.66;32.86;99624.84;10212478;28;20062;-63
2022/04/04 13:55:59;;;;;;;6.80;4.95;;;;;;;9.58;33.16;99593.63;10233660;28;20054;-61
2022/04/04 14:01:00;;;;;;;6.10;4.78;;;;;;;9.26;34.91;99601.69;10215335;28;20693;-62
2022/04/04 14:06:02;;;;;;;5.75;4.95;;;;;;;8.90;36.71;99604.66;10218609;28;20122;-62
2022/04/04 14:11:10;;;;;;;5.57;5.15;;;;;;;8.71;37.25;99584.16;10213633;28;20538;-63
2022/04/04 14:16:12;;;;;;;6.03;5.43;;;;;;;8.74;37.30;99597.16;10218900;28;20058;-62
2022/04/04 14:21:14;;;;;;;5.65;5.05;;;;;;;8.69;37.87;99598.50;10217359;28;20263;-62
2022/04/04 14:26:16;;;;;;;6.07;5.55;;;;;;;8.62;38.56;99566.34;10215951;28;20671;-62
2022/04/04 14:31:18;;;;;;;7.50;6.20;;;;;;;8.61;39.42;99585.88;10216475;28;20046;-64
2022/04/04 14:36:19;;;;;;;6.30;5.70;;;;;;;8.53;40.06;99567.94;10217165;28;20126;-63
2022/04/04 14:41:21;;;;;;;6.40;5.82;;;;;;;8.39;40.90;99550.50;10216316;28;20054;-62
2022/04/04 14:46:26;;;;;;;7.30;6.53;;;;;;;8.30;43.76;99589.22;10216849;28;22944;-63
2022/04/04 14:51:31;;;;;;;6.60;6.10;;;;;;;8.08;45.44;99563.59;10218007;28;21228;-64
2022/04/04 14:56:32;;;;;;;7.35;6.53;;;;;;;8.02;45.79;99564.09;10212189;28;20558;-61
2022/04/04 15:01:34;;;;;;;6.32;5.80;;;;;;;8.23;45.56;99560.69;10213524;28;20098;-62
2022/04/04 15:06:36;;;;;;;6.70;6.07;;;;;;;8.20;45.80;99555.63;10217976;28;20054;-61
2022/04/04 15:11:38;;;;;;;6.68;6.18;;;;;;;8.29;45.74;99560.19;10219376;28;20614;-63
2022/04/04 15:16:40;;;;;;;7.43;6.82;;;;;;;8.37;45.72;99556.88;10229234;28;20065;-62
2022/04/04 15:21:42;;;;;;;7.50;6.78;;;;;;;8.26;46.43;99555.13;10229485;28;20076;-62
2022/04/04 15:26:45;;;;;;;6.95;6.45;;;;;;;8.01;47.55;99538.56;10228235;28;20155;-62
2022/04/04 15:31:47;;;;;;;7.47;6.53;;;;;;;7.83;47.84;99537.41;10227483;28;20517;-62
2022/04/04 15:36:49;;;;;;;8.13;7.53;;;;;;;7.92;47.53;99531.34;10226388;28;20703;-61
2022/04/04 15:41:56;;;;;;;7.97;7.28;;;;;;;7.93;47.31;99530.41;10214090;28;20063;-62
2022/04/04 15:46:57;;;;;;;7.70;6.97;;;;;;;7.92;47.56;99552.56;10225686;28;20054;-62
2022/04/04 15:51:59;;;;;;;8.35;7.60;;;;;;;7.88;48.01;99551.09;10223527;28;20530;-62
2022/04/04 15:57:00;;;;;;;8.35;7.65;;;;;;;7.82;48.51;99533.06;10225969;28;20059;-62
2022/04/04 16:02:03;;;;;;;8.73;7.82;;;;;;;7.68;49.06;99529.72;10221876;28;20079;-63
2022/04/04 16:07:05;;;;;;;7.95;7.32;;;;;;;7.72;49.08;99519.72;10222219;28;20051;-63
2022/04/04 16:12:06;;;;;;;8.60;7.80;;;;;;;7.64;49.07;99520.34;10222408;28;20042;-62
2022/04/04 16:17:11;;;;;;;12.48;8.32;;;;;;;7.81;49.11;99515.47;10220915;28;20126;-62
2022/04/04 16:22:12;;;;;;;8.40;7.70;;;;;;;7.91;49.36;99508.47;10227277;28;20081;-63
2022/04/04 16:27:14;;;;;;;8.88;8.05;;;;;;;7.77;48.78;99496.34;10229406;28;20234;-63
2022/04/04 16:32:16;;;;;;;8.57;7.78;;;;;;;7.67;48.91;99482.16;10227338;28;20167;-63
2022/04/04 16:37:17;;;;;;;7.60;7.00;;;;;;;7.83;48.68;99497.66;10220567;28;20069;-61
2022/04/04 16:42:24;;;;;;;7.97;7.18;;;;;;;7.79;48.84;99503.22;10225593;28;20090;-62
2022/04/04 16:47:26;;;;;;;7.32;6.50;;;;;;;7.56;49.54;99483.00;10267762;28;20108;-63
2022/04/04 16:52:27;;;;;;;7.45;6.75;;;;;;;7.49;50.33;99481.81;10243830;28;20089;-61
2022/04/04 16:57:29;;;;;;;8.23;7.35;;;;;;;7.54;50.62;99484.97;10225024;28;20691;-62
2022/04/04 17:02:30;;;;;;;7.53;6.93;;;;;;;7.48;50.69;99490.75;10222283;28;20134;-65
2022/04/04 17:07:33;;;;;;;7.45;6.72;;;;;;;7.58;50.81;99504.91;10226195;28;20153;-60
2022/04/04 17:12:35;;;;;;;7.72;6.95;;;;;;;7.59;51.19;99498.66;10229275;28;20133;-60
2022/04/04 17:17:37;;;;;;;7.15;6.53;;;;;;;7.46;52.21;99482.94;10226209;28;20541;-61
2022/04/04 17:22:38;;;;;;;7.50;6.90;;;;;;;7.43;52.44;99473.41;10227801;28;20105;-61
2022/04/04 17:27:40;;;;;;;7.80;6.95;;;;;;;7.64;52.28;99477.97;10226571;28;21239;-62
2022/04/04 17:32:42;;;;;;;7.82;7.22;;;;;;;7.57;53.62;99474.13;10226093;28;20055;-61
2022/04/04 17:37:44;;;;;;;7.90;7.18;;;;;;;7.49;53.44;99489.75;10221280;28;20050;-61
2022/04/04 17:42:45;;;;;;;7.90;7.30;;;;;;;7.42;53.35;99471.72;10223345;28;20054;-62
2022/04/04 17:47:47;;;;;;;8.80;7.90;;;;;;;7.47;53.57;99466.06;10220753;28;20065;-61
2022/04/04 17:52:49;;;;;;;9.02;7.38;;;;;;;7.49;53.29;99477.38;10246054;28;21303;-62
2022/04/04 17:57:50;;;;;;;9.52;8.63;;;;;;;7.54;53.08;99463.78;10227346;28;20141;-63
2022/04/04 18:02:52;;;;;;;8.95;8.15;;;;;;;7.50;53.26;99457.84;10220587;28;20054;-63
2022/04/04 18:07:53;;;;;;;7.35;6.35;;;;;;;7.44;54.18;99464.47;10221429;28;20047;-65
2022/04/04 18:12:55;;;;;;;8.23;7.53;;;;;;;7.42;54.36;99471.72;10222731;28;20813;-64
2022/04/04 18:18:00;;;;;;;7.63;6.63;;;;;;;7.40;55.91;99473.66;10216176;28;20466;-62
2022/04/04 18:23:02;;;;;;;8.40;7.70;;;;;;;7.47;55.46;99473.16;10217441;28;20078;-62
2022/04/04 18:28:03;;;;;;;8.38;7.57;;;;;;;7.31;56.09;99474.41;10220988;28;20476;-64
2022/04/04 18:33:05;;;;;;;9.15;7.65;;;;;;;7.31;56.89;99463.81;10222620;28;20693;-64
2022/04/04 18:38:06;;;;;;;8.90;8.18;;;;;;;7.10;57.13;99452.25;10220644;28;20099;-62
2022/04/04 18:43:07;;;;;;;10.05;9.07;;;;;;;7.08;57.41;99487.59;10226447;28;20052;-60
2022/04/04 18:48:10;;;;;;;10.10;9.10;;;;;;;6.93;57.86;99483.53;10220666;28;20924;-62
2022/04/04 18:53:11;;;;;;;9.65;8.75;;;;;;;7.06;57.89;99486.91;10217444;28;20051;-61
2022/04/04 18:58:12;;;;;;;10.65;9.75;;;;;;;7.14;57.51;99494.22;10215219;28;20707;-60
2022/04/04 19:03:14;;;;;;;10.70;9.70;;;;;;;7.04;57.99;99494.13;10217116;28;20126;-62
2022/04/04 19:08:16;;;;;;;10.25;9.35;;;;;;;7.03;58.05;99489.78;10225327;28;20728;-62
2022/04/04 19:13:18;;;;;;;10.65;9.65;;;;;;;7.14;58.12;99477.53;10227752;28;20050;-63
2022/04/04 19:18:19;;;;;;;10.93;9.93;;;;;;;7.05;58.34;99474.63;10236638;28;20057;-62
2022/04/04 19:23:21;;;;;;;10.77;9.77;;;;;;;7.11;58.31;99472.47;10212912;28;20755;-62
2022/04/04 19:28:25;;;;;;;10.63;9.27;;;;;;;7.19;57.85;99468.25;10211740;28;20051;-62
2022/04/04 19:33:27;;;;;;;11.50;10.30;;;;;;;7.04;59.04;99467.66;10214258;28;20062;-62
2022/04/04 19:38:29;;;;;;;11.77;10.77;;;;;;;7.06;59.36;99467.53;10217880;28;20121;-62
2022/04/04 19:43:30;;;;;;;11.00;10.00;;;;;;;7.08;59.35;99466.44;10213602;28;20070;-62
2022/04/04 19:48:31;;;;;;;11.50;10.18;;;;;;;7.02;59.78;99472.22;10216477;28;20786;-63
2022/04/04 19:53:33;;;;;;;11.55;10.48;;;;;;;7.06;60.46;99456.97;10212110;28;20059;-63
2022/04/04 19:58:35;;;;;;;11.88;10.77;;;;;;;7.04;62.05;99459.72;10220133;28;20595;-63
2022/04/04 20:03:36;;;;;;;12.63;10.95;;;;;;;6.80;64.11;99448.41;10213119;28;20059;-63
2022/04/04 20:08:38;;;;;;;12.32;11.23;;;;;;;6.73;65.69;99448.88;10217397;28;20054;-64
2022/04/04 20:13:39;;;;;;;11.68;10.57;;;;;;;6.78;66.13;99452.97;10217268;28;20331;-63
2022/04/04 20:18:42;;;;;;;12.18;11.10;;;;;;;6.71;66.51;99440.22;10228750;28;20451;-63
2022/04/04 20:23:43;;;;;;;13.55;12.23;;;;;;;6.80;66.21;99448.41;10215110;28;20060;-63
2022/04/04 20:28:45;;;;;;;12.65;11.45;;;;;;;6.78;66.06;99443.22;10213206;28;20071;-62
2022/04/04 20:33:46;;;;;;;12.43;11.32;;;;;;;6.56;66.58;99420.25;10205215;28;20058;-63
2022/04/04 20:38:48;;;;;;;12.55;11.38;;;;;;;6.54;66.29;99412.44;10214200;28;20071;-64
2022/04/04 20:43:49;;;;;;;11.70;10.60;;;;;;;6.51;66.07;99406.53;10213276;28;20051;-64
2022/04/04 20:48:51;;;;;;;12.02;10.88;;;;;;;6.67;67.32;99417.63;10219305;28;20054;-63
2022/04/04 20:53:52;;;;;;;11.65;10.45;;;;;;;6.54;67.33;99401.00;10216539;28;20051;-67
2022/04/04 20:58:54;;;;;;;12.18;10.95;;;;;;;6.57;67.25;99406.06;10220048;28;20054;-61
2022/04/04 21:03:55;;;;;;;10.75;9.65;;;;;;;6.60;67.84;99405.81;10212658;28;20194;-62
2022/04/04 21:08:57;;;;;;;10.98;9.98;;;;;;;6.44;67.83;99386.81;10219254;28;20158;-62
2022/04/04 21:13:58;;;;;;;10.88;9.88;;;;;;;6.47;68.06;99397.16;10221135;28;20480;-62
2022/04/04 21:19:04;;;;;;;10.65;9.73;;;;;;;6.65;67.81;99408.97;10215643;28;20058;-62
2022/04/04 21:24:07;;;;;;;10.95;10.05;;;;;;;6.69;67.23;99410.38;10219470;28;20047;-62
2022/04/04 21:29:09;;;;;;;10.23;9.10;;;;;;;6.62;67.33;99393.34;10208291;28;20668;-63
2022/04/04 21:34:10;;;;;;;10.38;9.38;;;;;;;6.61;67.29;99386.34;10210351;28;20137;-62
2022/04/04 21:39:12;;;;;;;9.60;8.77;;;;;;;6.68;66.76;99392.00;10231649;28;20103;-63
2022/04/04 21:44:13;;;;;;;10.07;9.10;;;;;;;6.74;66.82;99396.84;10218151;28;20513;-65
2022/04/04 21:49:14;;;;;;;9.07;8.27;;;;;;;6.59;67.95;99367.13;10212568;28;20608;-64
2022/04/04 21:54:21;;;;;;;9.43;8.52;;;;;;;6.59;68.48;99383.00;10216734;28;20043;-62
2022/04/04 21:59:22;;;;;;;9.27;8.15;;;;;;;6.51;69.14;99385.38;10216195;28;20128;-64
2022/04/04 22:04:25;;;;;;;8.73;7.85;;;;;;;6.48;70.34;99385.63;10220293;28;20058;-64
2022/04/04 22:09:27;;;;;;;8.40;7.60;;;;;;;6.40;70.33;99375.66;10214277;28;20055;-63
2022/04/04 22:14:28;;;;;;;7.97;7.18;;;;;;;6.61;70.14;99380.25;10215593;28;20117;-63
2022/04/04 22:19:30;;;;;;;8.65;7.85;;;;;;;6.52;69.79;99365.91;10216015;28;20055;-63
2022/04/04 22:24:31;;;;;;;8.38;7.53;;;;;;;6.49;70.90;99374.09;10210800;28;20061;-64
2022/04/04 22:29:33;;;;;;;7.63;6.75;;;;;;;6.54;70.81;99356.91;10213382;28;20046;-63
2022/04/04 22:34:34;;;;;;;7.50;6.80;;;;;;;6.49;71.24;99345.84;10214054;28;20061;-63
2022/04/04 22:39:36;;;;;;;7.28;6.65;;;;;;;6.58;71.23;99346.94;10211908;28;20810;-64
2022/04/04 22:44:38;;;;;;;7.60;6.85;;;;;;;6.58;70.61;99339.00;10215723;28;20626;-63
2022/04/04 22:49:40;;;;;;;6.13;5.63;;;;;;;6.53;70.85;99341.16;10215748;28;20064;-63
2022/04/04 22:54:41;;;;;;;5.90;5.40;;;;;;;6.58;70.50;99332.88;10219204;28;20738;-65
2022/04/04 22:59:44;;;;;;;6.32;5.70;;;;;;;6.62;69.69;99321.06;10215319;28;20055;-64
2022/04/04 23:04:45;;;;;;;6.55;6.05;;;;;;;6.69;69.45;99323.13;10215973;28;20059;-63
2022/04/04 23:09:47;;;;;;;7.10;6.50;;;;;;;6.59;70.96;99303.66;10214649;28;20065;-62
2022/04/04 23:14:48;;;;;;;6.82;6.13;;;;;;;6.56;72.07;99330.34;10213887;28;20062;-62
2022/04/04 23:19:50;;;;;;;6.63;6.03;;;;;;;6.49;73.09;99329.16;10213189;28;20530;-61
2022/04/04 23:24:51;;;;;;;6.70;6.10;;;;;;;6.54;73.73;99321.69;10213253;28;20061;-62
2022/04/04 23:29:52;;;;;;;8.05;6.28;;;;;;;6.51;73.79;99321.94;10213104;28;20065;-62
2022/04/04 23:34:54;;;;;;;6.57;5.82;;;;;;;6.55;73.77;99312.81;10222696;28;20058;-62